sensor_id;sensor_type;location;lat;lon;timestamp;pressure;altitude;pressure_sealevel;temperature;humidity
69257;BME280;56376;53.356;-1.748;2023-07-31T00:02:19;98300.78;;;15.41;100.00
69257;BME280;56376;53.356;-1.748;2023-07-31T00:04:44;98295.44;;;15.43;100.00
69257;BME280;56376;53.356;-1.748;2023-07-31T00:07:09;98291.97;;;15.42;100.00
69257;BME280;56376;53.356;-1.748;2023-07-31T00:09:35;98285.00;;;15.41;100.00
69257;BME280;56376;53.356;-1.748;2023-07-31T00:12:00;98285.00;;;15.41;100.00
69257;BME280;56376;53.356;-1.748;2023-07-31T00:14:26;98284.06;;;15.42;100.00
69257;BME280;56376;53.356;-1.748;2023-07-31T00:16:51;98282.28;;;15.43;100.00
69257;BME280;56376;53.356;-1.748;2023-07-31T00:19:19;98277.75;;;15.45;100.00
69257;BME280;56376;53.356;-1.748;2023-07-31T00:21:45;98284.66;;;15.46;100.00
69257;BME280;56376;53.356;-1.748;2023-07-31T00:24:10;98280.13;;;15.48;100.00
69257;BME280;56376;53.356;-1.748;2023-07-31T00:26:35;98270.69;;;15.45;100.00
69257;BME280;56376;53.356;-1.748;2023-07-31T00:29:01;98267.06;;;15.46;100.00
69257;BME280;56376;53.356;-1.748;2023-07-31T00:31:26;98260.97;;;15.46;100.00
69257;BME280;56376;53.356;-1.748;2023-07-31T00:33:52;98266.84;;;15.49;100.00
69257;BME280;56376;53.356;-1.748;2023-07-31T00:36:17;98264.19;;;15.49;100.00
69257;BME280;56376;53.356;-1.748;2023-07-31T00:38:43;98254.53;;;15.50;100.00
69257;BME280;56376;53.356;-1.748;2023-07-31T00:41:09;98255.47;;;15.49;100.00
69257;BME280;56376;53.356;-1.748;2023-07-31T00:43:34;98258.09;;;15.49;100.00
69257;BME280;56376;53.356;-1.748;2023-07-31T00:45:59;98246.75;;;15.48;100.00
69257;BME280;56376;53.356;-1.748;2023-07-31T00:48:25;98253.69;;;15.49;100.00
69257;BME280;56376;53.356;-1.748;2023-07-31T00:50:51;98248.41;;;15.49;100.00
69257;BME280;56376;53.356;-1.748;2023-07-31T00:53:16;98245.78;;;15.49;100.00
69257;BME280;56376;53.356;-1.748;2023-07-31T00:55:43;98252.84;;;15.49;100.00
69257;BME280;56376;53.356;-1.748;2023-07-31T00:58:08;98251.03;;;15.49;100.00
69257;BME280;56376;53.356;-1.748;2023-07-31T01:00:33;98249.28;;;15.50;100.00
69257;BME280;56376;53.356;-1.748;2023-07-31T01:02:59;98249.13;;;15.51;100.00
69257;BME280;56376;53.356;-1.748;2023-07-31T01:05:36;98245.69;;;15.51;100.00
69257;BME280;56376;53.356;-1.748;2023-07-31T01:08:12;98242.94;;;15.52;100.00
69257;BME280;56376;53.356;-1.748;2023-07-31T01:10:51;98241.13;;;15.53;100.00
69257;BME280;56376;53.356;-1.748;2023-07-31T01:13:20;98237.69;;;15.52;100.00
69257;BME280;56376;53.356;-1.748;2023-07-31T01:15:46;98221.88;;;15.52;100.00
69257;BME280;56376;53.356;-1.748;2023-07-31T01:18:11;98227.84;;;15.54;100.00
69257;BME280;56376;53.356;-1.748;2023-07-31T01:20:37;98219.13;;;15.54;100.00
69257;BME280;56376;53.356;-1.748;2023-07-31T01:28:55;98219.84;;;15.56;100.00
69257;BME280;56376;53.356;-1.748;2023-07-31T01:31:23;98216.25;;;15.57;100.00
69257;BME280;56376;53.356;-1.748;2023-07-31T01:33:50;98214.47;;;15.57;100.00
69257;BME280;56376;53.356;-1.748;2023-07-31T01:36:18;98215.16;;;15.59;100.00
69257;BME280;56376;53.356;-1.748;2023-07-31T01:38:43;98207.28;;;15.59;100.00
69257;BME280;56376;53.356;-1.748;2023-07-31T01:41:09;98209.06;;;15.59;100.00
69257;BME280;56376;53.356;-1.748;2023-07-31T01:43:34;98198.69;;;15.57;100.00
69257;BME280;56376;53.356;-1.748;2023-07-31T01:45:59;98199.50;;;15.58;100.00
69257;BME280;56376;53.356;-1.748;2023-07-31T01:48:25;98197.72;;;15.58;100.00
69257;BME280;56376;53.356;-1.748;2023-07-31T01:50:50;98193.28;;;15.59;100.00
69257;BME280;56376;53.356;-1.748;2023-07-31T01:53:15;98196.75;;;15.59;100.00
69257;BME280;56376;53.356;-1.748;2023-07-31T01:55:41;98196.75;;;15.59;100.00
69257;BME280;56376;53.356;-1.748;2023-07-31T01:58:06;98202.72;;;15.62;100.00
69257;BME280;56376;53.356;-1.748;2023-07-31T02:00:31;98193.03;;;15.62;100.00
69257;BME280;56376;53.356;-1.748;2023-07-31T02:02:57;98199.16;;;15.63;100.00
69257;BME280;56376;53.356;-1.748;2023-07-31T02:05:22;98192.19;;;15.62;100.00
69257;BME280;56376;53.356;-1.748;2023-07-31T02:07:48;98194.72;;;15.63;100.00
69257;BME280;56376;53.356;-1.748;2023-07-31T02:10:13;98186.84;;;15.63;100.00
69257;BME280;56376;53.356;-1.748;2023-07-31T02:12:39;98184.06;;;15.65;100.00
69257;BME280;56376;53.356;-1.748;2023-07-31T02:15:04;98181.22;;;15.68;100.00
69257;BME280;56376;53.356;-1.748;2023-07-31T02:17:30;98163.88;;;15.65;100.00
69257;BME280;56376;53.356;-1.748;2023-07-31T02:19:55;98170.69;;;15.68;100.00
69257;BME280;56376;53.356;-1.748;2023-07-31T02:22:20;98174.97;;;15.69;100.00
69257;BME280;56376;53.356;-1.748;2023-07-31T02:24:46;98161.81;;;15.69;100.00
69257;BME280;56376;53.356;-1.748;2023-07-31T02:27:11;98164.38;;;15.70;100.00
69257;BME280;56376;53.356;-1.748;2023-07-31T02:29:37;98148.66;;;15.69;100.00
69257;BME280;56376;53.356;-1.748;2023-07-31T02:32:02;98158.34;;;15.68;100.00
69257;BME280;56376;53.356;-1.748;2023-07-31T02:34:28;98153.91;;;15.69;100.00
69257;BME280;56376;53.356;-1.748;2023-07-31T02:36:53;98155.59;;;15.70;100.00
69257;BME280;56376;53.356;-1.748;2023-07-31T02:39:18;98153.91;;;15.69;100.00
69257;BME280;56376;53.356;-1.748;2023-07-31T02:41:44;98161.59;;;15.72;100.00
69257;BME280;56376;53.356;-1.748;2023-07-31T02:44:09;98155.50;;;15.71;100.00
69257;BME280;56376;53.356;-1.748;2023-07-31T02:46:35;98149.28;;;15.72;100.00
69257;BME280;56376;53.356;-1.748;2023-07-31T02:49:01;98144.03;;;15.72;100.00
69257;BME280;56376;53.356;-1.748;2023-07-31T02:51:26;98144.72;;;15.74;100.00
69257;BME280;56376;53.356;-1.748;2023-07-31T02:53:51;98149.03;;;15.75;100.00
69257;BME280;56376;53.356;-1.748;2023-07-31T02:56:17;98144.63;;;15.76;100.00
69257;BME280;56376;53.356;-1.748;2023-07-31T02:58:42;98136.72;;;15.76;100.00
69257;BME280;56376;53.356;-1.748;2023-07-31T03:01:07;98129.53;;;15.78;100.00
69257;BME280;56376;53.356;-1.748;2023-07-31T03:03:33;98153.22;;;15.78;100.00
69257;BME280;56376;53.356;-1.748;2023-07-31T03:05:58;98144.38;;;15.79;100.00
69257;BME280;56376;53.356;-1.748;2023-07-31T03:08:24;98142.56;;;15.79;100.00
69257;BME280;56376;53.356;-1.748;2023-07-31T03:10:49;98138.84;;;15.82;100.00
69257;BME280;56376;53.356;-1.748;2023-07-31T03:13:14;98145.09;;;15.81;100.00
69257;BME280;56376;53.356;-1.748;2023-07-31T03:15:43;98141.47;;;15.82;100.00
69257;BME280;56376;53.356;-1.748;2023-07-31T03:18:08;98142.19;;;15.84;100.00
69257;BME280;56376;53.356;-1.748;2023-07-31T03:20:34;98153.56;;;15.85;100.00
69257;BME280;56376;53.356;-1.748;2023-07-31T03:22:59;98141.25;;;15.85;100.00
69257;BME280;56376;53.356;-1.748;2023-07-31T03:25:25;98148.19;;;15.86;100.00
69257;BME280;56376;53.356;-1.748;2023-07-31T03:27:50;98137.66;;;15.86;100.00
69257;BME280;56376;53.356;-1.748;2023-07-31T03:30:15;98136.00;;;15.85;100.00
69257;BME280;56376;53.356;-1.748;2023-07-31T03:32:41;98135.75;;;15.88;100.00
69257;BME280;56376;53.356;-1.748;2023-07-31T03:35:06;98121.84;;;15.86;100.00
69257;BME280;56376;53.356;-1.748;2023-07-31T03:37:32;98135.75;;;15.88;100.00
69257;BME280;56376;53.356;-1.748;2023-07-31T03:39:58;98128.94;;;15.86;100.00
69257;BME280;56376;53.356;-1.748;2023-07-31T03:42:23;98141.13;;;15.87;100.00
69257;BME280;56376;53.356;-1.748;2023-07-31T03:44:48;98142.19;;;15.84;100.00
69257;BME280;56376;53.356;-1.748;2023-07-31T03:47:14;98144.00;;;15.84;100.00
69257;BME280;56376;53.356;-1.748;2023-07-31T03:49:39;98141.38;;;15.84;100.00
69257;BME280;56376;53.356;-1.748;2023-07-31T03:52:05;98140.41;;;15.85;100.00
69257;BME280;56376;53.356;-1.748;2023-07-31T03:54:30;98137.06;;;15.83;100.00
69257;BME280;56376;53.356;-1.748;2023-07-31T03:56:56;98139.56;;;15.84;100.00
69257;BME280;56376;53.356;-1.748;2023-07-31T03:59:21;98136.94;;;15.84;100.00
69257;BME280;56376;53.356;-1.748;2023-07-31T04:01:46;98129.03;;;15.84;100.00
69257;BME280;56376;53.356;-1.748;2023-07-31T04:04:12;98131.66;;;15.84;100.00
69257;BME280;56376;53.356;-1.748;2023-07-31T04:06:37;98123.78;;;15.84;100.00
69257;BME280;56376;53.356;-1.748;2023-07-31T04:09:02;98127.22;;;15.85;100.00
69257;BME280;56376;53.356;-1.748;2023-07-31T04:11:28;98120.41;;;15.82;100.00
69257;BME280;56376;53.356;-1.748;2023-07-31T04:13:53;98129.88;;;15.85;100.00
69257;BME280;56376;53.356;-1.748;2023-07-31T04:16:19;98131.66;;;15.84;100.00
69257;BME280;56376;53.356;-1.748;2023-07-31T04:18:44;98127.38;;;15.83;100.00
69257;BME280;56376;53.356;-1.748;2023-07-31T04:21:10;98132.50;;;15.85;100.00
69257;BME280;56376;53.356;-1.748;2023-07-31T04:23:35;98126.41;;;15.84;100.00
69257;BME280;56376;53.356;-1.748;2023-07-31T04:26:00;98124.50;;;15.86;100.00
69257;BME280;56376;53.356;-1.748;2023-07-31T04:28:26;98135.13;;;15.85;100.00
69257;BME280;56376;53.356;-1.748;2023-07-31T04:30:52;98134.31;;;15.84;100.00
69257;BME280;56376;53.356;-1.748;2023-07-31T04:33:18;98136.09;;;15.84;100.00
69257;BME280;56376;53.356;-1.748;2023-07-31T04:35:50;98148.44;;;15.83;100.00
69257;BME280;56376;53.356;-1.748;2023-07-31T04:38:17;98141.47;;;15.82;100.00
69257;BME280;56376;53.356;-1.748;2023-07-31T04:40:43;98142.34;;;15.83;100.00
69257;BME280;56376;53.356;-1.748;2023-07-31T04:43:08;98142.44;;;15.81;100.00
69257;BME280;56376;53.356;-1.748;2023-07-31T04:45:33;98150.34;;;15.81;100.00
69257;BME280;56376;53.356;-1.748;2023-07-31T04:47:59;98146.88;;;15.81;100.00
69257;BME280;56376;53.356;-1.748;2023-07-31T04:50:24;98141.72;;;15.79;100.00
69257;BME280;56376;53.356;-1.748;2023-07-31T04:52:49;98147.81;;;15.79;100.00
69257;BME280;56376;53.356;-1.748;2023-07-31T04:55:15;98145.34;;;15.78;100.00
69257;BME280;56376;53.356;-1.748;2023-07-31T04:57:40;98135.63;;;15.78;100.00
69257;BME280;56376;53.356;-1.748;2023-07-31T05:00:06;98137.44;;;15.78;100.00
69257;BME280;56376;53.356;-1.748;2023-07-31T05:02:31;98135.63;;;15.78;100.00
69257;BME280;56376;53.356;-1.748;2023-07-31T05:04:57;98142.69;;;15.78;100.00
69257;BME280;56376;53.356;-1.748;2023-07-31T05:07:23;98147.97;;;15.78;100.00
69257;BME280;56376;53.356;-1.748;2023-07-31T05:09:48;98147.00;;;15.79;100.00
69257;BME280;56376;53.356;-1.748;2023-07-31T05:12:13;98142.69;;;15.78;100.00
69257;BME280;56376;53.356;-1.748;2023-07-31T05:14:39;98149.78;;;15.77;100.00
69257;BME280;56376;53.356;-1.748;2023-07-31T05:17:04;98158.59;;;15.76;100.00
69257;BME280;56376;53.356;-1.748;2023-07-31T05:19:30;98156.81;;;15.77;100.00
69257;BME280;56376;53.356;-1.748;2023-07-31T05:21:55;98155.25;;;15.74;100.00
69257;BME280;56376;53.356;-1.748;2023-07-31T05:24:20;98164.94;;;15.74;100.00
69257;BME280;56376;53.356;-1.748;2023-07-31T05:26:46;98151.22;;;15.70;100.00
69257;BME280;56376;53.356;-1.748;2023-07-31T05:29:11;98151.94;;;15.72;100.00
69257;BME280;56376;53.356;-1.748;2023-07-31T05:31:37;98154.56;;;15.72;100.00
69257;BME280;56376;53.356;-1.748;2023-07-31T05:34:04;98153.69;;;15.72;100.00
69257;BME280;56376;53.356;-1.748;2023-07-31T05:36:29;98164.13;;;15.73;100.00
69257;BME280;56376;53.356;-1.748;2023-07-31T05:38:54;98149.41;;;15.71;100.00
69257;BME280;56376;53.356;-1.748;2023-07-31T05:41:20;98155.50;;;15.71;100.00
69257;BME280;56376;53.356;-1.748;2023-07-31T05:43:45;98154.66;;;15.71;100.00
69257;BME280;56376;53.356;-1.748;2023-07-31T05:46:11;98145.81;;;15.72;100.00
69257;BME280;56376;53.356;-1.748;2023-07-31T05:48:37;98160.75;;;15.71;100.00
69257;BME280;56376;53.356;-1.748;2023-07-31T05:51:03;98149.41;;;15.71;100.00
69257;BME280;56376;53.356;-1.748;2023-07-31T05:53:28;98145.09;;;15.70;100.00
69257;BME280;56376;53.356;-1.748;2023-07-31T05:55:54;98143.38;;;15.69;100.00
69257;BME280;56376;53.356;-1.748;2023-07-31T05:58:19;98140.69;;;15.70;100.00
69257;BME280;56376;53.356;-1.748;2023-07-31T06:00:44;98141.50;;;15.71;100.00
69257;BME280;56376;53.356;-1.748;2023-07-31T06:03:10;98141.25;;;15.74;100.00
69257;BME280;56376;53.356;-1.748;2023-07-31T06:05:35;98125.47;;;15.74;100.00
69257;BME280;56376;53.356;-1.748;2023-07-31T06:08:01;98124.63;;;15.73;100.00
69257;BME280;56376;53.356;-1.748;2023-07-31T06:10:26;98119.25;;;15.75;100.00
69257;BME280;56376;53.356;-1.748;2023-07-31T06:12:52;98117.31;;;15.77;100.00
69257;BME280;56376;53.356;-1.748;2023-07-31T06:15:17;98117.47;;;15.75;100.00
69257;BME280;56376;53.356;-1.748;2023-07-31T06:17:44;98128.72;;;15.77;100.00
69257;BME280;56376;53.356;-1.748;2023-07-31T06:20:10;98117.31;;;15.77;100.00
69257;BME280;56376;53.356;-1.748;2023-07-31T06:22:36;98125.22;;;15.77;100.00
69257;BME280;56376;53.356;-1.748;2023-07-31T06:25:01;98122.72;;;15.75;100.00
69257;BME280;56376;53.356;-1.748;2023-07-31T06:27:26;98124.28;;;15.78;100.00
69257;BME280;56376;53.356;-1.748;2023-07-31T06:29:52;98128.72;;;15.77;100.00
69257;BME280;56376;53.356;-1.748;2023-07-31T06:32:17;98125.09;;;15.78;100.00
69257;BME280;56376;53.356;-1.748;2023-07-31T06:34:42;98126.91;;;15.78;100.00
69257;BME280;56376;53.356;-1.748;2023-07-31T06:37:08;98134.91;;;15.76;100.00
69257;BME280;56376;53.356;-1.748;2023-07-31T06:39:33;98133.09;;;15.77;100.00
69257;BME280;56376;53.356;-1.748;2023-07-31T06:41:59;98129.53;;;15.78;100.00
69257;BME280;56376;53.356;-1.748;2023-07-31T06:44:24;98113.75;;;15.78;100.00
69257;BME280;56376;53.356;-1.748;2023-07-31T06:46:49;98124.38;;;15.76;100.00
69257;BME280;56376;53.356;-1.748;2023-07-31T06:49:15;98121.63;;;15.78;100.00
69257;BME280;56376;53.356;-1.748;2023-07-31T06:51:40;98131.34;;;15.77;100.00
69257;BME280;56376;53.356;-1.748;2023-07-31T06:54:08;98130.38;;;15.78;100.00
69257;BME280;56376;53.356;-1.748;2023-07-31T06:56:33;98131.44;;;15.76;100.00
69257;BME280;56376;53.356;-1.748;2023-07-31T06:58:59;98149.78;;;15.77;100.00
69257;BME280;56376;53.356;-1.748;2023-07-31T07:01:24;98155.72;;;15.79;100.00
69257;BME280;56376;53.356;-1.748;2023-07-31T07:03:49;98151.44;;;15.78;100.00
69257;BME280;56376;53.356;-1.748;2023-07-31T07:06:18;98148.69;;;15.80;100.00
69257;BME280;56376;53.356;-1.748;2023-07-31T07:08:44;98152.25;;;15.79;100.00
69257;BME280;56376;53.356;-1.748;2023-07-31T07:11:09;98149.63;;;15.79;100.00
69257;BME280;56376;53.356;-1.748;2023-07-31T07:13:34;98153.09;;;15.79;100.00
69257;BME280;56376;53.356;-1.748;2023-07-31T07:16:00;98149.63;;;15.79;100.00
69257;BME280;56376;53.356;-1.748;2023-07-31T07:18:25;98155.63;;;15.81;100.00
69257;BME280;56376;53.356;-1.748;2023-07-31T07:20:52;98137.53;;;15.76;100.00
69257;BME280;56376;53.356;-1.748;2023-07-31T07:23:17;98133.00;;;15.78;100.00
69257;BME280;56376;53.356;-1.748;2023-07-31T07:25:43;98129.53;;;15.78;100.00
69257;BME280;56376;53.356;-1.748;2023-07-31T07:28:09;98130.38;;;15.78;100.00
69257;BME280;56376;53.356;-1.748;2023-07-31T07:30:35;98133.84;;;15.79;100.00
69257;BME280;56376;53.356;-1.748;2023-07-31T07:33:00;98114.56;;;15.78;100.00
69257;BME280;56376;53.356;-1.748;2023-07-31T07:35:25;98115.28;;;15.81;100.00
69257;BME280;56376;53.356;-1.748;2023-07-31T07:37:51;98095.16;;;15.79;100.00
69257;BME280;56376;53.356;-1.748;2023-07-31T07:40:16;98114.31;;;15.82;100.00
69257;BME280;56376;53.356;-1.748;2023-07-31T07:42:42;98116.00;;;15.83;100.00
69257;BME280;56376;53.356;-1.748;2023-07-31T07:45:08;98121.13;;;15.84;100.00
69257;BME280;56376;53.356;-1.748;2023-07-31T07:47:33;98113.25;;;15.84;100.00
69257;BME280;56376;53.356;-1.748;2023-07-31T07:49:59;98109.66;;;15.85;100.00
69257;BME280;56376;53.356;-1.748;2023-07-31T07:52:24;98109.78;;;15.84;100.00
69257;BME280;56376;53.356;-1.748;2023-07-31T07:54:50;98116.69;;;15.85;100.00
69257;BME280;56376;53.356;-1.748;2023-07-31T07:57:15;98107.97;;;15.84;100.00
69257;BME280;56376;53.356;-1.748;2023-07-31T07:59:41;98118.50;;;15.84;100.00
69257;BME280;56376;53.356;-1.748;2023-07-31T08:02:08;98124.38;;;15.88;100.00
69257;BME280;56376;53.356;-1.748;2023-07-31T08:04:34;98138.47;;;15.87;100.00
69257;BME280;56376;53.356;-1.748;2023-07-31T08:07:00;98136.81;;;15.86;100.00
69257;BME280;56376;53.356;-1.748;2023-07-31T08:09:28;98138.63;;;15.85;100.00
69257;BME280;56376;53.356;-1.748;2023-07-31T08:11:54;98139.56;;;15.84;100.00
69257;BME280;56376;53.356;-1.748;2023-07-31T08:14:24;98137.75;;;15.85;100.00
69257;BME280;56376;53.356;-1.748;2023-07-31T08:16:51;98131.41;;;15.87;100.00
69257;BME280;56376;53.356;-1.748;2023-07-31T08:19:18;98113.25;;;15.84;100.00
69257;BME280;56376;53.356;-1.748;2023-07-31T08:21:46;98105.22;;;15.86;100.00
69257;BME280;56376;53.356;-1.748;2023-07-31T08:24:13;98100.78;;;15.86;100.00
69257;BME280;56376;53.356;-1.748;2023-07-31T08:26:40;98089.28;;;15.87;100.00
69257;BME280;56376;53.356;-1.748;2023-07-31T08:29:06;98099.00;;;15.87;100.00
69257;BME280;56376;53.356;-1.748;2023-07-31T08:31:31;98101.50;;;15.88;100.00
69257;BME280;56376;53.356;-1.748;2023-07-31T08:33:56;98099.00;;;15.87;100.00
69257;BME280;56376;53.356;-1.748;2023-07-31T08:36:22;98097.19;;;15.87;100.00
69257;BME280;56376;53.356;-1.748;2023-07-31T08:38:48;98104.41;;;15.85;100.00
69257;BME280;56376;53.356;-1.748;2023-07-31T08:41:15;98112.97;;;15.87;100.00
69257;BME280;56376;53.356;-1.748;2023-07-31T08:43:44;98114.06;;;15.85;100.00
69257;BME280;56376;53.356;-1.748;2023-07-31T08:46:10;98111.44;;;15.85;100.00
69257;BME280;56376;53.356;-1.748;2023-07-31T08:48:37;98120.88;;;15.87;100.00
69257;BME280;56376;53.356;-1.748;2023-07-31T08:51:03;98105.94;;;15.88;100.00
69257;BME280;56376;53.356;-1.748;2023-07-31T08:53:29;98114.69;;;15.88;100.00
69257;BME280;56376;53.356;-1.748;2023-07-31T08:55:54;98105.09;;;15.87;100.00
69257;BME280;56376;53.356;-1.748;2023-07-31T08:58:22;98116.69;;;15.85;100.00
69257;BME280;56376;53.356;-1.748;2023-07-31T09:00:49;98108.56;;;15.88;100.00
69257;BME280;56376;53.356;-1.748;2023-07-31T09:03:18;98099.59;;;15.90;100.00
69257;BME280;56376;53.356;-1.748;2023-07-31T09:05:45;98100.44;;;15.91;100.00
69257;BME280;56376;53.356;-1.748;2023-07-31T09:08:13;98095.16;;;15.91;100.00
69257;BME280;56376;53.356;-1.748;2023-07-31T09:10:43;98095.72;;;15.94;100.00
69257;BME280;56376;53.356;-1.748;2023-07-31T09:13:09;98087.13;;;15.92;100.00
69257;BME280;56376;53.356;-1.748;2023-07-31T09:15:36;98088.81;;;15.93;100.00
69257;BME280;56376;53.356;-1.748;2023-07-31T09:18:03;98090.72;;;15.91;100.00
69257;BME280;56376;53.356;-1.748;2023-07-31T09:20:28;98080.19;;;15.91;100.00
69257;BME280;56376;53.356;-1.748;2023-07-31T09:22:55;98093.34;;;15.91;100.00
69257;BME280;56376;53.356;-1.748;2023-07-31T09:25:27;98096.81;;;15.92;100.00
69257;BME280;56376;53.356;-1.748;2023-07-31T09:28:06;98098.63;;;15.91;100.00
69257;BME280;56376;53.356;-1.748;2023-07-31T09:30:45;98094.34;;;15.90;100.00
69257;BME280;56376;53.356;-1.748;2023-07-31T09:33:10;98095.00;;;15.92;100.00
69257;BME280;56376;53.356;-1.748;2023-07-31T09:35:36;98088.19;;;15.90;100.00
69257;BME280;56376;53.356;-1.748;2023-07-31T09:38:10;98094.34;;;15.90;100.00
69257;BME280;56376;53.356;-1.748;2023-07-31T09:40:41;98094.34;;;15.90;100.00
69257;BME280;56376;53.356;-1.748;2023-07-31T09:43:08;98101.16;;;15.93;100.00
69257;BME280;56376;53.356;-1.748;2023-07-31T09:45:38;98112.25;;;15.96;100.00
69257;BME280;56376;53.356;-1.748;2023-07-31T09:48:14;98106.97;;;15.96;100.00
69257;BME280;56376;53.356;-1.748;2023-07-31T09:50:42;98106.00;;;15.97;100.00
69257;BME280;56376;53.356;-1.748;2023-07-31T09:53:08;98103.16;;;16.00;100.00
69257;BME280;56376;53.356;-1.748;2023-07-31T09:55:35;98108.41;;;16.00;100.00
69257;BME280;56376;53.356;-1.748;2023-07-31T09:58:09;98110.91;;;16.02;100.00
69257;BME280;56376;53.356;-1.748;2023-07-31T10:00:35;98101.22;;;16.02;100.00
69257;BME280;56376;53.356;-1.748;2023-07-31T10:03:04;98107.19;;;16.05;100.00
69257;BME280;56376;53.356;-1.748;2023-07-31T10:05:34;98107.91;;;16.07;100.00
69257;BME280;56376;53.356;-1.748;2023-07-31T10:08:00;98113.19;;;16.07;100.00
69257;BME280;56376;53.356;-1.748;2023-07-31T10:10:26;98109.59;;;16.08;100.00
69257;BME280;56376;53.356;-1.748;2023-07-31T10:12:53;98106.09;;;16.07;100.00
69257;BME280;56376;53.356;-1.748;2023-07-31T10:15:19;98113.06;;;16.08;100.00
69257;BME280;56376;53.356;-1.748;2023-07-31T10:17:47;98111.38;;;16.07;100.00
69257;BME280;56376;53.356;-1.748;2023-07-31T10:20:14;98119.28;;;16.07;100.00
69257;BME280;56376;53.356;-1.748;2023-07-31T10:22:41;98116.78;;;16.06;100.00
69257;BME280;56376;53.356;-1.748;2023-07-31T10:25:08;98121.09;;;16.07;100.00
69257;BME280;56376;53.356;-1.748;2023-07-31T10:27:35;98120.50;;;16.03;100.00
69257;BME280;56376;53.356;-1.748;2023-07-31T10:30:03;98115.34;;;16.01;100.00
69257;BME280;56376;53.356;-1.748;2023-07-31T10:32:31;98092.63;;;16.00;100.00
69257;BME280;56376;53.356;-1.748;2023-07-31T10:34:57;98090.94;;;15.99;100.00
69257;BME280;56376;53.356;-1.748;2023-07-31T10:37:23;98088.19;;;16.01;100.00
69257;BME280;56376;53.356;-1.748;2023-07-31T10:40:06;98068.78;;;16.02;100.00
69257;BME280;56376;53.356;-1.748;2023-07-31T10:42:36;98066.03;;;16.04;100.00
69257;BME280;56376;53.356;-1.748;2023-07-31T10:45:11;98066.03;;;16.04;100.00
69257;BME280;56376;53.356;-1.748;2023-07-31T10:47:43;98069.38;;;16.06;100.00
69257;BME280;56376;53.356;-1.748;2023-07-31T10:50:16;98060.75;;;16.04;100.00
69257;BME280;56376;53.356;-1.748;2023-07-31T10:52:46;98068.66;;;16.04;100.00
69257;BME280;56376;53.356;-1.748;2023-07-31T10:55:28;98086.25;;;16.03;100.00
69257;BME280;56376;53.356;-1.748;2023-07-31T10:58:13;98086.25;;;16.03;100.00
69257;BME280;56376;53.356;-1.748;2023-07-31T11:00:40;98081.94;;;16.02;100.00
69257;BME280;56376;53.356;-1.748;2023-07-31T11:03:08;98079.44;;;16.00;100.00
69257;BME280;56376;53.356;-1.748;2023-07-31T11:06:03;98077.50;;;16.02;100.00
69257;BME280;56376;53.356;-1.748;2023-07-31T11:08:32;98070.59;;;16.01;100.00
69257;BME280;56376;53.356;-1.748;2023-07-31T11:13:29;98067.94;;;16.01;100.00
69257;BME280;56376;53.356;-1.748;2023-07-31T11:15:54;98081.94;;;16.02;100.00
69257;BME280;56376;53.356;-1.748;2023-07-31T11:18:19;98099.53;;;16.01;100.00
69257;BME280;56376;53.356;-1.748;2023-07-31T11:20:45;98095.25;;;16.00;100.00
69257;BME280;56376;53.356;-1.748;2023-07-31T11:23:11;98097.88;;;16.00;100.00
69257;BME280;56376;53.356;-1.748;2023-07-31T11:25:40;98101.59;;;15.98;100.00
69257;BME280;56376;53.356;-1.748;2023-07-31T11:28:09;98111.88;;;16.01;100.00
69257;BME280;56376;53.356;-1.748;2023-07-31T11:30:35;98105.91;;;15.99;100.00
69257;BME280;56376;53.356;-1.748;2023-07-31T11:33:05;98096.34;;;15.98;100.00
69257;BME280;56376;53.356;-1.748;2023-07-31T11:35:35;98084.13;;;15.97;100.00
69257;BME280;56376;53.356;-1.748;2023-07-31T11:38:01;98087.47;;;15.99;100.00
69257;BME280;56376;53.356;-1.748;2023-07-31T11:40:28;98088.44;;;15.98;100.00
69257;BME280;56376;53.356;-1.748;2023-07-31T11:42:57;98088.44;;;15.98;100.00
69257;BME280;56376;53.356;-1.748;2023-07-31T11:45:26;98088.56;;;15.96;100.00
69257;BME280;56376;53.356;-1.748;2023-07-31T11:47:54;98083.28;;;15.96;100.00
69257;BME280;56376;53.356;-1.748;2023-07-31T11:50:20;98065.81;;;15.95;100.00
69257;BME280;56376;53.356;-1.748;2023-07-31T11:52:46;98060.56;;;15.95;100.00
69257;BME280;56376;53.356;-1.748;2023-07-31T11:55:14;98063.19;;;15.95;100.00
69257;BME280;56376;53.356;-1.748;2023-07-31T11:57:42;98069.41;;;15.94;100.00
69257;BME280;56376;53.356;-1.748;2023-07-31T12:00:09;98067.75;;;15.93;100.00
69257;BME280;56376;53.356;-1.748;2023-07-31T12:02:39;98064.28;;;15.93;100.00
69257;BME280;56376;53.356;-1.748;2023-07-31T12:05:12;98057.06;;;15.95;100.00
69257;BME280;56376;53.356;-1.748;2023-07-31T12:07:51;98049.06;;;15.96;100.00
69257;BME280;56376;53.356;-1.748;2023-07-31T12:13:05;98028.81;;;15.97;100.00
69257;BME280;56376;53.356;-1.748;2023-07-31T12:15:40;98022.34;;;16.01;100.00
69257;BME280;56376;53.356;-1.748;2023-07-31T12:18:08;98021.63;;;15.99;100.00
69257;BME280;56376;53.356;-1.748;2023-07-31T12:20:34;98040.63;;;16.02;100.00
69257;BME280;56376;53.356;-1.748;2023-07-31T12:23:00;98053.56;;;16.06;100.00
69257;BME280;56376;53.356;-1.748;2023-07-31T12:25:30;98055.50;;;16.04;100.00
69257;BME280;56376;53.356;-1.748;2023-07-31T12:27:56;98051.06;;;16.04;100.00
69257;BME280;56376;53.356;-1.748;2023-07-31T12:30:33;98031.06;;;16.01;100.00
69257;BME280;56376;53.356;-1.748;2023-07-31T12:33:15;98048.06;;;15.97;100.00
69257;BME280;56376;53.356;-1.748;2023-07-31T12:35:45;98046.41;;;15.96;100.00
69257;BME280;56376;53.356;-1.748;2023-07-31T12:38:12;98038.53;;;15.96;100.00
69257;BME280;56376;53.356;-1.748;2023-07-31T12:40:39;98051.81;;;15.95;100.00
69257;BME280;56376;53.356;-1.748;2023-07-31T12:43:05;98051.94;;;15.93;100.00
69257;BME280;56376;53.356;-1.748;2023-07-31T12:45:31;98053.84;;;15.91;100.00
69257;BME280;56376;53.356;-1.748;2023-07-31T12:47:58;98053.97;;;15.90;100.00
69257;BME280;56376;53.356;-1.748;2023-07-31T12:50:24;98074.47;;;15.86;100.00